Time;durP1;ratioP1;P1;durP2;ratioP2;P2;SDS_P1;SDS_P2;PMS_P1;PMS_P2;Temp;Humidity;BMP_temperature;BMP_pressure;BME280_temperature;BME280_humidity;BME280_pressure;Samples;Min_cycle;Max_cycle;Signal;HPM_P1;HPM_P2
2023/09/03 00:01:40;;;;;;;10.75;9.85;;;14.40;99.90;;;;;;5050322;28;20106;-83
2023/09/03 00:04:06;;;;;;;11.10;10.00;;;14.40;99.90;;;;;;5050548;28;20029;-84
2023/09/03 00:06:32;;;;;;;10.95;9.93;;;14.40;99.90;;;;;;5052983;28;20427;-84
2023/09/03 00:08:57;;;;;;;10.90;10.00;;;14.40;99.90;;;;;;5051880;28;20040;-84
2023/09/03 00:11:23;;;;;;;10.93;9.93;;;14.50;99.90;;;;;;5045083;28;20037;-83
2023/09/03 00:13:49;;;;;;;12.32;11.00;;;14.30;99.90;;;;;;5051433;28;20052;-85
2023/09/03 00:16:14;;;;;;;12.07;10.88;;;14.30;99.90;;;;;;5042153;28;20041;-84
2023/09/03 00:18:40;;;;;;;10.48;9.52;;;14.20;99.90;;;;;;5045668;28;20058;-84
2023/09/03 00:21:06;;;;;;;10.70;9.73;;;15.10;99.90;;;;;;5051409;28;20064;-85
2023/09/03 00:23:32;;;;;;;11.10;9.98;;;14.10;99.90;;;;;;5053534;28;20037;-86
2023/09/03 00:25:59;;;;;;;11.43;10.35;;;14.10;99.90;;;;;;5086055;28;20059;-85
2023/09/03 00:28:26;;;;;;;10.50;9.50;;;14.10;99.90;;;;;;5053029;28;20136;-84
2023/09/03 00:31:06;;;;;;;11.85;10.20;;;14.40;99.90;;;;;;5053462;28;20045;-86
2023/09/03 00:33:32;;;;;;;11.15;10.10;;;14.00;99.90;;;;;;5050861;28;20037;-83
2023/09/03 00:36:00;;;;;;;12.75;10.77;;;14.10;99.90;;;;;;5038902;28;20431;-84
2023/09/03 00:38:25;;;;;;;9.80;8.75;;;13.90;99.90;;;;;;5048726;28;20400;-84
2023/09/03 00:40:51;;;;;;;10.65;9.63;;;14.50;99.90;;;;;;5037404;28;20045;-83
2023/09/03 00:43:17;;;;;;;10.88;9.88;;;14.50;99.90;;;;;;5039530;28;20065;-84
2023/09/03 00:45:43;;;;;;;10.05;9.15;;;13.90;99.90;;;;;;5046573;28;20172;-86
2023/09/03 00:48:13;;;;;;;9.38;8.48;;;13.90;99.90;;;;;;5044083;28;20087;-85
2023/09/03 00:50:41;;;;;;;10.88;8.63;;;13.90;99.90;;;;;;5041542;28;20119;-85
2023/09/03 00:53:08;;;;;;;9.90;8.82;;;13.90;99.90;;;;;;5047248;28;20075;-86
2023/09/03 00:55:34;;;;;;;8.85;8.15;;;13.90;99.90;;;;;;5051749;28;20099;-84
2023/09/03 00:58:00;;;;;;;8.43;7.68;;;13.90;99.90;;;;;;5031024;28;20600;-85
2023/09/03 01:00:26;;;;;;;10.77;8.98;;;13.90;99.90;;;;;;5046681;28;20098;-85
2023/09/03 01:02:54;;;;;;;9.43;8.52;;;14.40;99.90;;;;;;5045420;28;20091;-85
2023/09/03 01:05:19;;;;;;;9.60;8.80;;;13.90;99.90;;;;;;5048884;28;20057;-85
2023/09/03 01:07:46;;;;;;;10.23;9.18;;;13.80;99.90;;;;;;5050606;28;20037;-86
2023/09/03 01:10:12;;;;;;;9.18;8.38;;;13.80;99.90;;;;;;5042922;28;20044;-84
2023/09/03 01:13:02;;;;;;;9.63;8.63;;;14.30;99.90;;;;;;5039820;28;20048;-86
2023/09/03 01:15:38;;;;;;;9.13;8.13;;;13.70;99.90;;;;;;5047621;28;20482;-85
2023/09/03 01:18:19;;;;;;;9.00;8.20;;;13.70;99.90;;;;;;5045539;28;20088;-86
2023/09/03 01:20:50;;;;;;;9.52;8.52;;;13.60;99.90;;;;;;5041437;28;20542;-84
2023/09/03 01:23:46;;;;;;;11.88;9.45;;;12.30;99.90;;;;;;5050733;28;20401;-85
2023/09/03 01:26:38;;;;;;;9.02;8.23;;;13.50;99.90;;;;;;5048733;28;20515;-83
2023/09/03 01:29:04;;;;;;;8.73;7.93;;;13.50;99.90;;;;;;5048715;28;20113;-85
2023/09/03 01:31:31;;;;;;;8.88;8.07;;;13.50;99.90;;;;;;5073058;28;20499;-85
2023/09/03 01:34:03;;;;;;;8.40;7.60;;;13.80;99.90;;;;;;5079964;28;20040;-84
2023/09/03 01:36:31;;;;;;;7.50;6.82;;;13.80;99.90;;;;;;5045002;28;20045;-85
2023/09/03 01:39:03;;;;;;;7.90;7.05;;;14.70;99.90;;;;;;5049536;28;20037;-85
2023/09/03 01:41:38;;;;;;;6.82;6.20;;;13.70;99.90;;;;;;5046050;28;20400;-85
2023/09/03 01:44:08;;;;;;;7.15;6.55;;;14.20;99.90;;;;;;5049366;28;20151;-84
2023/09/03 01:46:50;;;;;;;5.90;5.40;;;13.30;99.90;;;;;;5046801;28;20397;-85
2023/09/03 01:49:41;;;;;;;5.20;4.80;;;13.30;99.90;;;;;;5076185;28;20124;-85
2023/09/03 01:52:26;;;;;;;4.95;4.60;;;13.30;99.90;;;;;;5043093;28;20139;-85
2023/09/03 01:54:55;;;;;;;5.03;4.72;;;13.30;99.90;;;;;;5044413;28;20079;-84
2023/09/03 01:57:34;;;;;;;5.50;4.82;;;14.30;99.90;;;;;;5047672;28;20092;-84
2023/09/03 02:00:06;;;;;;;6.22;4.22;;;13.20;99.90;;;;;;5048682;28;20516;-84
2023/09/03 02:02:33;;;;;;;4.43;4.03;;;13.20;99.90;;;;;;5040415;28;20041;-86
2023/09/03 02:04:59;;;;;;;4.35;3.95;;;13.40;99.90;;;;;;5050130;28;20127;-86
2023/09/03 02:07:24;;;;;;;4.90;4.40;;;13.90;99.90;;;;;;5048372;28;20049;-85
2023/09/03 02:09:50;;;;;;;4.82;4.32;;;13.20;99.90;;;;;;5048495;28;20067;-84
2023/09/03 02:12:16;;;;;;;5.10;4.60;;;13.20;99.90;;;;;;5079231;28;20048;-85
2023/09/03 02:14:42;;;;;;;4.70;4.32;;;13.20;99.90;;;;;;5046236;28;20057;-84
2023/09/03 02:17:09;;;;;;;4.60;4.30;;;13.20;99.90;;;;;;5026550;28;20083;-84
2023/09/03 02:19:34;;;;;;;4.95;4.47;;;14.70;99.90;;;;;;5064662;28;20454;-85
2023/09/03 02:22:00;;;;;;;4.47;4.18;;;13.20;99.90;;;;;;5054154;28;20413;-85
2023/09/03 02:24:26;;;;;;;4.75;4.40;;;14.10;99.90;;;;;;5048765;28;20071;-84
2023/09/03 02:26:51;;;;;;;4.93;4.50;;;13.20;99.90;;;;;;5052186;28;20048;-84
2023/09/03 02:29:17;;;;;;;6.03;5.43;;;13.60;99.90;;;;;;5049523;28;20044;-85
2023/09/03 02:31:43;;;;;;;6.15;5.75;;;13.20;99.90;;;;;;5047318;28;20421;-85
2023/09/03 02:34:09;;;;;;;6.22;5.72;;;13.10;99.90;;;;;;5052389;28;20063;-84
2023/09/03 02:36:35;;;;;;;5.68;5.18;;;13.20;99.90;;;;;;5039328;28;20032;-85
2023/09/03 02:39:07;;;;;;;5.65;5.25;;;13.20;99.90;;;;;;5050084;28;20037;-84
2023/09/03 02:41:33;;;;;;;5.82;5.43;;;13.20;99.90;;;;;;5042312;28;20049;-85
2023/09/03 02:44:01;;;;;;;5.40;5.03;;;13.60;99.90;;;;;;5046514;28;20076;-83
2023/09/03 02:46:27;;;;;;;5.25;4.85;;;13.60;99.90;;;;;;5055879;28;20056;-84
2023/09/03 02:48:53;;;;;;;5.82;4.78;;;13.80;99.90;;;;;;5033662;28;20041;-86
2023/09/03 02:51:19;;;;;;;6.68;6.03;;;13.30;99.90;;;;;;5047863;28;20040;-85
2023/09/03 02:53:46;;;;;;;6.35;5.80;;;13.40;99.90;;;;;;5048146;28;20037;-85
2023/09/03 02:56:14;;;;;;;7.35;6.47;;;13.30;99.90;;;;;;5045320;28;20099;-85
2023/09/03 02:58:46;;;;;;;6.22;5.75;;;13.30;99.90;;;;;;5045159;28;20040;-85
2023/09/03 03:01:14;;;;;;;7.05;6.47;;;13.30;99.90;;;;;;5044114;28;20160;-84
2023/09/03 03:03:44;;;;;;;6.35;5.90;;;14.10;99.90;;;;;;5054474;28;20073;-84
2023/09/03 03:06:10;;;;;;;6.72;6.22;;;13.20;99.90;;;;;;5045378;28;20481;-85
2023/09/03 03:08:35;;;;;;;6.90;6.25;;;13.10;99.90;;;;;;5049403;28;20045;-85
2023/09/03 03:11:12;;;;;;;6.25;5.60;;;13.80;99.90;;;;;;5052984;28;20485;-85
2023/09/03 03:13:39;;;;;;;6.85;6.25;;;13.10;99.90;;;;;;5040002;28;20072;-86
2023/09/03 03:16:15;;;;;;;6.82;6.22;;;13.50;99.90;;;;;;5042052;28;20224;-84
2023/09/03 03:18:47;;;;;;;6.53;6.03;;;13.00;99.90;;;;;;5035525;28;20037;-85
2023/09/03 03:21:16;;;;;;;6.78;6.10;;;13.70;99.90;;;;;;5041993;28;20048;-85
2023/09/03 03:23:45;;;;;;;6.00;5.60;;;13.00;99.90;;;;;;5049916;28;20052;-84
2023/09/03 03:26:11;;;;;;;5.97;5.47;;;14.60;99.90;;;;;;5047044;28;20116;-83
2023/09/03 03:28:37;;;;;;;6.50;6.10;;;13.00;99.90;;;;;;5047306;28;20554;-83
2023/09/03 03:31:10;;;;;;;5.78;5.38;;;13.90;99.90;;;;;;5036072;28;20429;-84
2023/09/03 03:33:40;;;;;;;5.40;5.00;;;13.30;99.90;;;;;;5049024;28;20049;-86
2023/09/03 03:36:07;;;;;;;6.28;5.88;;;12.90;99.90;;;;;;5047981;28;20498;-85
2023/09/03 03:38:33;;;;;;;6.75;6.18;;;12.90;99.90;;;;;;5048151;28;20091;-84
2023/09/03 03:41:09;;;;;;;7.60;5.97;;;13.50;99.90;;;;;;5049490;28;20033;-85
2023/09/03 03:43:39;;;;;;;6.15;5.75;;;12.80;99.90;;;;;;5044540;28;20060;-86
2023/09/03 03:46:06;;;;;;;6.80;6.15;;;12.90;99.90;;;;;;5043324;28;20025;-84
2023/09/03 03:48:32;;;;;;;6.05;5.65;;;12.80;99.90;;;;;;5049496;28;20045;-85
2023/09/03 03:50:58;;;;;;;7.30;5.75;;;12.80;99.90;;;;;;5049421;28;20116;-85
2023/09/03 03:53:24;;;;;;;6.22;5.72;;;12.80;99.90;;;;;;5050065;28;20120;-84
2023/09/03 03:55:58;;;;;;;5.97;5.43;;;12.70;99.90;;;;;;5045184;28;20052;-84
2023/09/03 03:58:25;;;;;;;5.53;5.20;;;12.70;99.90;;;;;;5082074;28;20378;-85
2023/09/03 04:00:51;;;;;;;6.03;5.53;;;12.80;99.90;;;;;;5048108;28;20095;-84
2023/09/03 04:03:16;;;;;;;5.72;5.25;;;12.70;99.90;;;;;;5049849;28;20045;-85
2023/09/03 04:05:42;;;;;;;6.15;5.75;;;12.80;99.90;;;;;;5043159;28;20083;-84
2023/09/03 04:08:08;;;;;;;6.07;5.60;;;12.70;99.90;;;;;;5043175;28;20103;-84
2023/09/03 04:10:33;;;;;;;5.68;5.28;;;12.70;99.90;;;;;;5047273;28;20040;-84
2023/09/03 04:12:59;;;;;;;5.35;4.97;;;12.70;99.90;;;;;;5046103;28;20475;-83
2023/09/03 04:15:24;;;;;;;5.93;5.28;;;12.70;99.90;;;;;;5044040;28;20564;-85
2023/09/03 04:17:50;;;;;;;5.82;5.35;;;12.70;99.90;;;;;;5047889;28;20166;-84
2023/09/03 04:20:16;;;;;;;5.32;4.93;;;12.70;99.90;;;;;;5046345;28;20052;-85
2023/09/03 04:22:41;;;;;;;6.40;5.35;;;12.70;99.90;;;;;;5046974;28;20053;-84
2023/09/03 04:25:07;;;;;;;5.18;4.78;;;12.70;99.90;;;;;;5053211;28;20080;-85
2023/09/03 04:27:32;;;;;;;5.82;5.20;;;12.70;99.90;;;;;;5047361;28;20488;-84
2023/09/03 04:29:58;;;;;;;5.45;4.95;;;12.60;99.90;;;;;;5050948;28;20064;-85
2023/09/03 04:32:24;;;;;;;5.68;5.28;;;14.40;99.90;;;;;;5052519;28;20048;-85
2023/09/03 04:34:50;;;;;;;5.93;5.22;;;12.80;99.90;;;;;;5050858;28;20037;-84
2023/09/03 04:37:16;;;;;;;5.60;5.10;;;14.20;99.90;;;;;;5052422;28;20041;-85
2023/09/03 04:39:41;;;;;;;5.07;4.78;;;12.60;99.90;;;;;;5052504;28;20401;-84
2023/09/03 04:42:07;;;;;;;5.80;5.40;;;12.50;99.90;;;;;;5052490;28;20087;-84
2023/09/03 04:44:33;;;;;;;5.53;5.15;;;13.30;99.90;;;;;;5050002;28;20045;-85
2023/09/03 04:46:59;;;;;;;5.75;5.30;;;12.50;99.90;;;;;;5051041;28;20040;-84
2023/09/03 04:49:25;;;;;;;5.13;4.75;;;12.50;99.90;;;;;;5051012;28;20043;-85
2023/09/03 04:51:50;;;;;;;5.65;5.15;;;13.40;99.90;;;;;;5044161;28;20095;-85
2023/09/03 04:54:16;;;;;;;4.53;4.28;;;12.40;99.90;;;;;;5051766;28;20093;-85
2023/09/03 04:56:45;;;;;;;4.45;4.22;;;12.40;99.90;;;;;;5048607;28;20040;-84
2023/09/03 04:59:10;;;;;;;4.20;3.90;;;12.40;99.90;;;;;;5037328;28;20040;-85
2023/09/03 05:01:36;;;;;;;4.20;3.90;;;12.40;99.90;;;;;;5037776;28;20045;-85
2023/09/03 05:04:03;;;;;;;4.00;3.60;;;13.60;99.90;;;;;;5037225;28;20033;-85
2023/09/03 05:06:28;;;;;;;3.85;3.65;;;12.10;99.90;;;;;;5039344;28;20045;-85
2023/09/03 05:08:54;;;;;;;4.03;3.83;;;12.50;99.90;;;;;;5040422;28;20056;-84
2023/09/03 05:11:20;;;;;;;4.07;3.83;;;12.40;99.90;;;;;;5039588;28;20270;-84
2023/09/03 05:13:45;;;;;;;4.05;3.75;;;12.60;99.90;;;;;;5070285;28;20037;-84
2023/09/03 05:16:11;;;;;;;3.67;3.47;;;12.40;99.90;;;;;;5073115;28;21620;-84
2023/09/03 05:18:37;;;;;;;3.75;3.55;;;12.40;99.90;;;;;;5039005;28;20433;-84
2023/09/03 05:21:07;;;;;;;3.97;3.40;;;12.40;99.90;;;;;;5038469;28;20049;-85
2023/09/03 05:23:33;;;;;;;4.13;3.92;;;12.40;99.90;;;;;;5040371;28;20033;-85
2023/09/03 05:25:59;;;;;;;3.90;3.70;;;14.00;99.90;;;;;;5052505;28;20393;-85
2023/09/03 05:28:24;;;;;;;3.53;3.25;;;12.40;99.90;;;;;;5048149;28;20091;-85
2023/09/03 05:30:50;;;;;;;3.95;3.58;;;12.40;99.90;;;;;;5045949;28;20048;-85
2023/09/03 05:33:15;;;;;;;3.80;3.60;;;13.60;99.90;;;;;;5031415;28;20194;-85
2023/09/03 05:35:41;;;;;;;3.38;3.17;;;12.90;99.90;;;;;;5047923;28;20048;-85
2023/09/03 05:38:07;;;;;;;3.95;3.75;;;12.40;99.90;;;;;;5050234;28;20033;-85
2023/09/03 05:40:33;;;;;;;3.92;3.63;;;14.00;99.90;;;;;;5031918;28;20107;-86
2023/09/03 05:42:58;;;;;;;4.45;4.05;;;13.90;99.90;;;;;;5045599;28;20044;-84
2023/09/03 05:45:24;;;;;;;4.57;3.60;;;12.50;99.90;;;;;;5048598;28;20041;-85
2023/09/03 05:47:50;;;;;;;4.03;3.80;;;12.40;99.90;;;;;;5052620;28;20614;-85
2023/09/03 05:50:15;;;;;;;4.72;4.30;;;12.50;99.90;;;;;;5050172;28;20036;-85
2023/09/03 05:52:42;;;;;;;4.30;4.00;;;12.50;99.90;;;;;;5047096;28;20045;-86
2023/09/03 05:55:08;;;;;;;3.78;3.58;;;12.50;99.90;;;;;;5047707;28;20045;-84
2023/09/03 05:57:34;;;;;;;4.57;4.18;;;12.50;99.90;;;;;;5046203;28;20394;-83
2023/09/03 06:00:00;;;;;;;4.90;4.60;;;12.50;99.90;;;;;;5045115;28;20171;-84
2023/09/03 06:02:26;;;;;;;5.07;4.57;;;12.60;99.90;;;;;;5045476;28;20565;-83
2023/09/03 06:04:52;;;;;;;4.93;4.53;;;12.60;99.90;;;;;;5048380;28;20371;-84
2023/09/03 06:07:18;;;;;;;4.90;4.60;;;13.90;99.90;;;;;;5082335;28;20049;-85
2023/09/03 06:09:45;;;;;;;4.90;4.60;;;12.70;99.90;;;;;;5049299;28;20112;-85
2023/09/03 06:12:10;;;;;;;6.50;5.95;;;12.70;99.90;;;;;;5046293;28;20050;-84
2023/09/03 06:14:36;;;;;;;6.65;6.15;;;13.80;99.90;;;;;;5042019;28;20046;-85
2023/09/03 06:17:04;;;;;;;7.70;7.10;;;12.80;99.90;;;;;;5048181;28;20033;-85
2023/09/03 06:19:30;;;;;;;5.75;5.35;;;12.80;99.90;;;;;;5048611;28;20059;-84
2023/09/03 06:21:56;;;;;;;6.50;5.97;;;12.80;99.90;;;;;;5043448;28;20117;-84
2023/09/03 06:24:22;;;;;;;7.18;6.68;;;12.80;99.90;;;;;;5045246;28;21966;-84
2023/09/03 06:26:48;;;;;;;11.70;9.45;;;12.90;99.90;;;;;;5046937;28;20040;-85
2023/09/03 06:29:13;;;;;;;12.68;11.55;;;12.90;99.90;;;;;;5046577;28;20544;-85
2023/09/03 06:31:39;;;;;;;15.52;13.95;;;12.90;99.90;;;;;;5046751;28;20041;-85
2023/09/03 06:34:05;;;;;;;13.05;11.70;;;12.90;99.90;;;;;;5050829;28;20036;-84
2023/09/03 06:36:30;;;;;;;12.82;11.52;;;14.50;99.90;;;;;;5045561;28;20052;-83
2023/09/03 06:38:56;;;;;;;11.00;9.90;;;13.00;99.90;;;;;;5050614;28;20090;-85
2023/09/03 06:41:21;;;;;;;11.63;10.52;;;13.00;99.90;;;;;;5040132;28;20045;-84
2023/09/03 06:43:47;;;;;;;12.38;10.55;;;13.10;99.90;;;;;;5044600;28;20044;-84
2023/09/03 06:46:13;;;;;;;11.52;10.10;;;13.10;99.90;;;;;;5051889;28;20045;-85
2023/09/03 06:48:38;;;;;;;7.93;7.20;;;13.10;99.90;;;;;;5050023;28;20132;-85
2023/09/03 06:51:04;;;;;;;10.18;9.32;;;13.20;99.90;;;;;;5043028;28;20115;-85
2023/09/03 06:53:30;;;;;;;13.45;12.05;;;13.20;99.90;;;;;;5051276;28;20057;-83
2023/09/03 06:55:57;;;;;;;14.43;12.65;;;13.30;99.90;;;;;;5050175;28;20094;-83
2023/09/03 06:58:23;;;;;;;10.30;9.27;;;14.10;99.90;;;;;;5039574;28;20041;-85
2023/09/03 07:00:49;;;;;;;11.20;10.15;;;13.40;99.90;;;;;;5037551;28;20067;-83
2023/09/03 07:03:15;;;;;;;9.07;8.38;;;13.40;99.90;;;;;;5028198;28;20041;-85
2023/09/03 07:05:41;;;;;;;9.68;8.82;;;13.50;99.90;;;;;;5036668;28;20094;-84
2023/09/03 07:08:07;;;;;;;10.82;9.77;;;13.60;99.90;;;;;;5038842;28;20057;-86
2023/09/03 07:10:33;;;;;;;10.38;9.40;;;13.70;99.90;;;;;;5069872;28;20152;-84
2023/09/03 07:12:59;;;;;;;10.20;9.27;;;13.80;99.90;;;;;;5041729;28;20045;-85
2023/09/03 07:15:25;;;;;;;10.65;9.65;;;13.90;99.90;;;;;;5042095;28;20037;-84
2023/09/03 07:17:51;;;;;;;11.65;9.93;;;15.00;99.90;;;;;;5041066;28;20060;-85
2023/09/03 07:20:17;;;;;;;12.98;10.93;;;15.40;99.90;;;;;;5037358;28;20053;-84
2023/09/03 07:22:42;;;;;;;11.68;10.18;;;14.10;99.90;;;;;;5071267;28;20455;-84
2023/09/03 07:25:09;;;;;;;13.95;12.65;;;15.30;99.90;;;;;;5066701;28;20044;-83
2023/09/03 07:27:38;;;;;;;11.00;9.85;;;15.10;99.90;;;;;;5038987;28;20128;-84
2023/09/03 07:30:06;;;;;;;13.65;10.68;;;14.40;99.90;;;;;;5038278;28;20073;-85
2023/09/03 07:32:31;;;;;;;10.80;9.32;;;14.50;99.90;;;;;;5037359;28;20048;-85
2023/09/03 07:34:57;;;;;;;9.07;8.15;;;14.50;99.90;;;;;;5034367;28;20055;-83
2023/09/03 07:37:23;;;;;;;9.02;8.13;;;14.60;99.90;;;;;;5039768;28;20037;-85
2023/09/03 07:39:48;;;;;;;8.75;7.85;;;14.60;99.90;;;;;;5037136;28;20128;-85
2023/09/03 07:42:14;;;;;;;9.07;8.15;;;14.70;99.90;;;;;;5033299;28;20073;-84
2023/09/03 07:44:40;;;;;;;12.48;8.50;;;14.80;99.90;;;;;;5040685;28;20297;-83
2023/09/03 07:47:05;;;;;;;8.93;8.02;;;14.90;99.90;;;;;;5034544;28;20041;-84
2023/09/03 07:49:31;;;;;;;10.02;8.00;;;14.90;99.90;;;;;;5038244;28;20044;-82
2023/09/03 07:51:57;;;;;;;7.80;7.00;;;15.00;99.90;;;;;;5066809;28;20041;-83
2023/09/03 07:54:22;;;;;;;8.07;7.30;;;15.00;99.90;;;;;;5035522;28;20071;-82
2023/09/03 07:56:48;;;;;;;7.82;7.10;;;15.00;99.90;;;;;;5038456;28;20381;-82
2023/09/03 07:59:13;;;;;;;8.55;6.55;;;15.30;99.90;;;;;;5037094;28;20400;-82
2023/09/03 08:01:39;;;;;;;9.00;7.57;;;15.10;99.90;;;;;;5069424;28;20036;-82
2023/09/03 08:04:05;;;;;;;7.85;7.15;;;15.20;99.90;;;;;;5042450;28;20167;-82
2023/09/03 08:06:31;;;;;;;6.72;6.13;;;15.20;99.90;;;;;;5037385;28;20504;-81
2023/09/03 08:08:56;;;;;;;7.68;6.45;;;15.30;99.90;;;;;;5041896;28;20033;-82
2023/09/03 08:11:22;;;;;;;7.07;6.47;;;15.40;99.90;;;;;;5043466;28;20041;-82
2023/09/03 08:13:56;;;;;;;7.20;6.40;;;15.40;99.90;;;;;;5039136;28;20033;-83
2023/09/03 08:16:21;;;;;;;9.40;6.23;;;15.50;99.90;;;;;;5040919;28;20124;-82
2023/09/03 08:18:47;;;;;;;6.65;6.00;;;16.50;99.90;;;;;;5038978;28;20553;-81
2023/09/03 08:21:13;;;;;;;6.90;6.30;;;15.60;99.90;;;;;;5051152;28;20424;-82
2023/09/03 08:23:40;;;;;;;5.03;4.50;;;15.60;99.90;;;;;;5053477;28;20082;-81
2023/09/03 08:26:06;;;;;;;6.25;5.65;;;15.70;99.90;;;;;;5053507;28;20053;-81
2023/09/03 08:28:32;;;;;;;5.78;5.28;;;15.80;99.90;;;;;;5057301;28;20049;-81
2023/09/03 08:30:58;;;;;;;9.70;5.43;;;15.90;99.90;;;;;;5074973;28;20052;-80
2023/09/03 08:33:24;;;;;;;6.10;4.70;;;16.00;99.90;;;;;;5055227;28;20504;-81
2023/09/03 08:35:50;;;;;;;6.75;4.53;;;16.00;99.90;;;;;;5049777;28;20032;-81
2023/09/03 08:38:15;;;;;;;4.50;4.10;;;16.10;99.90;;;;;;5054166;28;20041;-82
2023/09/03 08:40:43;;;;;;;5.28;4.55;;;16.10;99.90;;;;;;5052994;28;20045;-81
2023/09/03 08:43:10;;;;;;;5.20;4.05;;;16.20;99.90;;;;;;5052280;28;20045;-81
2023/09/03 08:45:45;;;;;;;7.57;3.53;;;16.20;99.90;;;;;;5049077;28;20366;-82
2023/09/03 08:48:11;;;;;;;3.53;3.22;;;16.30;99.90;;;;;;5051967;28;20080;-81
2023/09/03 08:50:38;;;;;;;4.60;3.60;;;16.30;99.90;;;;;;5055151;28;20542;-81
2023/09/03 08:53:05;;;;;;;6.05;3.97;;;16.30;99.90;;;;;;5055826;28;20409;-82
2023/09/03 08:55:32;;;;;;;4.00;3.58;;;16.40;99.90;;;;;;5052733;28;20412;-81
2023/09/03 08:57:59;;;;;;;4.35;3.95;;;16.50;99.90;;;;;;5048610;28;20447;-82
2023/09/03 09:00:25;;;;;;;5.28;3.40;;;16.50;99.90;;;;;;5053312;28;20033;-78
2023/09/03 09:02:52;;;;;;;4.90;3.50;;;16.50;99.90;;;;;;5051286;28;20053;-82
2023/09/03 09:05:18;;;;;;;3.90;3.30;;;16.50;99.90;;;;;;5048880;28;20127;-82
2023/09/03 09:07:47;;;;;;;3.97;3.58;;;16.70;99.90;;;;;;5056081;28;20135;-85
2023/09/03 09:10:16;;;;;;;4.47;2.30;;;16.70;99.90;;;;;;5084951;28;20045;-82
2023/09/03 09:12:56;;;;;;;4.45;3.63;;;17.80;99.90;;;;;;5051135;28;20041;-85
2023/09/03 09:15:21;;;;;;;4.25;2.28;;;16.90;99.90;;;;;;5058640;28;20381;-82
2023/09/03 09:17:48;;;;;;;6.40;2.53;;;16.90;99.90;;;;;;5059605;28;20120;-81
2023/09/03 09:20:15;;;;;;;4.22;2.47;;;16.90;99.90;;;;;;5052759;28;20063;-82
2023/09/03 09:22:48;;;;;;;5.50;2.75;;;16.90;99.90;;;;;;5052210;28;20037;-83
2023/09/03 09:25:24;;;;;;;4.70;2.70;;;18.00;99.90;;;;;;5052890;28;20045;-87
2023/09/03 09:27:53;;;;;;;4.45;2.42;;;17.00;99.90;;;;;;5051304;28;20051;-83
2023/09/03 09:30:21;;;;;;;6.65;2.38;;;17.10;99.90;;;;;;5047601;28;20040;-83
2023/09/03 09:32:47;;;;;;;3.13;2.08;;;17.10;99.90;;;;;;5025112;28;20144;-83
2023/09/03 09:35:25;;;;;;;2.88;2.17;;;17.20;99.90;;;;;;5053504;28;20635;-84
2023/09/03 09:37:50;;;;;;;3.08;2.78;;;17.20;99.90;;;;;;5045777;28;20417;-83
2023/09/03 09:40:32;;;;;;;5.38;2.95;;;17.20;99.90;;;;;;5050877;28;20028;-84
2023/09/03 09:43:00;;;;;;;4.55;2.38;;;17.30;99.90;;;;;;5054299;28;20508;-84
2023/09/03 09:45:30;;;;;;;5.22;2.53;;;17.70;99.90;;;;;;5046601;28;20369;-83
2023/09/03 09:48:09;;;;;;;3.53;2.15;;;17.40;99.90;;;;;;5049083;28;20044;-83
2023/09/03 09:50:42;;;;;;;2.50;2.05;;;17.50;99.90;;;;;;5046750;28;20063;-83
2023/09/03 09:53:25;;;;;;;1.63;1.52;;;17.60;99.90;;;;;;5048291;28;20124;-83
2023/09/03 09:56:07;;;;;;;2.28;1.90;;;17.70;99.90;;;;;;5051670;28;20591;-78
2023/09/03 09:58:40;;;;;;;2.72;1.40;;;17.60;99.90;;;;;;5050361;28;20425;-79
2023/09/03 10:01:08;;;;;;;2.83;1.42;;;17.70;99.90;;;;;;5050472;28;20044;-78
2023/09/03 10:03:43;;;;;;;6.20;2.03;;;17.70;99.90;;;;;;5054684;28;20041;-79
2023/09/03 10:06:09;;;;;;;2.28;1.35;;;17.80;99.90;;;;;;5049954;28;20082;-78
2023/09/03 10:08:36;;;;;;;6.57;2.28;;;17.90;99.90;;;;;;5056335;28;20126;-78
2023/09/03 10:11:02;;;;;;;2.25;1.55;;;17.90;99.90;;;;;;5046661;28;20040;-78
2023/09/03 10:13:30;;;;;;;3.25;2.20;;;18.10;99.90;;;;;;5049501;28;20150;-79
2023/09/03 10:16:02;;;;;;;2.05;1.77;;;18.10;99.90;;;;;;5051302;28;20440;-79
2023/09/03 10:18:29;;;;;;;4.47;1.70;;;18.10;99.90;;;;;;5052377;28;20029;-78
2023/09/03 10:20:56;;;;;;;1.90;1.60;;;18.10;99.90;;;;;;5053065;28;20068;-79
2023/09/03 10:23:25;;;;;;;2.53;1.08;;;18.90;99.90;;;;;;5050226;28;20045;-78
2023/09/03 10:25:52;;;;;;;2.50;1.63;;;18.30;99.90;;;;;;5046278;28;20869;-84
2023/09/03 10:28:22;;;;;;;2.72;1.38;;;18.40;99.90;;;;;;5049560;28;20044;-83
2023/09/03 10:30:51;;;;;;;3.78;1.50;;;18.40;99.90;;;;;;5047323;28;20045;-84
2023/09/03 10:33:18;;;;;;;3.38;1.60;;;18.50;99.90;;;;;;5049414;28;20044;-80
2023/09/03 10:36:13;;;;;;;2.05;1.13;;;18.50;99.90;;;;;;5052914;28;20045;-84
2023/09/03 10:38:38;;;;;;;4.25;1.60;;;18.60;99.90;;;;;;5044269;28;20511;-82
2023/09/03 10:41:18;;;;;;;3.22;2.03;;;18.70;99.90;;;;;;5050448;28;20040;-83
2023/09/03 10:43:46;;;;;;;3.40;1.20;;;18.70;99.90;;;;;;5045473;28;20055;-82
2023/09/03 10:46:12;;;;;;;3.38;1.25;;;18.80;99.90;;;;;;5051168;28;20120;-81
2023/09/03 10:48:38;;;;;;;3.40;1.15;;;19.50;99.90;;;;;;5048242;28;20087;-80
2023/09/03 10:51:05;;;;;;;3.75;1.45;;;19.00;99.90;;;;;;5050775;28;20044;-81
2023/09/03 10:53:43;;;;;;;1.80;1.23;;;19.00;99.90;;;;;;5042348;28;20037;-80
2023/09/03 10:56:15;;;;;;;4.45;1.90;;;19.10;99.90;;;;;;4692414;28;10000266;-82
2023/09/03 10:58:58;;;;;;;4.32;1.50;;;19.10;99.90;;;;;;5076518;28;20056;-82
2023/09/03 11:01:32;;;;;;;5.55;1.63;;;19.10;99.90;;;;;;5043232;28;20052;-82
2023/09/03 11:04:03;;;;;;;3.03;1.50;;;19.20;99.90;;;;;;5047229;28;20389;-81
2023/09/03 11:06:33;;;;;;;3.08;1.55;;;19.20;99.90;;;;;;5048109;28;20108;-83
2023/09/03 11:08:59;;;;;;;1.85;0.95;;;19.30;99.90;;;;;;5043326;28;20044;-79
2023/09/03 11:11:27;;;;;;;1.75;1.13;;;19.40;99.90;;;;;;5047307;28;20040;-79
2023/09/03 11:13:53;;;;;;;3.95;1.48;;;19.50;99.90;;;;;;5053351;28;20448;-80
2023/09/03 11:16:34;;;;;;;3.92;2.45;;;19.50;99.90;;;;;;5041955;28;20400;-78
2023/09/03 11:19:03;;;;;;;3.05;1.67;;;19.60;99.90;;;;;;5043890;28;20064;-78
2023/09/03 11:21:29;;;;;;;6.00;1.73;;;19.70;99.90;;;;;;5062536;28;20106;-83
2023/09/03 11:23:58;;;;;;;2.80;1.23;;;19.80;99.90;;;;;;5046897;28;20064;-79
2023/09/03 11:26:24;;;;;;;2.42;1.48;;;19.90;99.90;;;;;;5078656;28;20139;-79
2023/09/03 11:28:49;;;;;;;2.05;1.00;;;19.90;99.90;;;;;;5041775;28;20083;-80
2023/09/03 11:31:15;;;;;;;2.30;0.95;;;20.00;99.90;;;;;;5049035;28;20505;-79
2023/09/03 11:33:40;;;;;;;1.73;1.13;;;20.10;99.90;;;;;;5050312;28;20051;-79
2023/09/03 11:36:06;;;;;;;3.38;1.08;;;20.10;99.90;;;;;;5040776;28;20420;-82
2023/09/03 11:38:33;;;;;;;1.95;0.47;;;20.30;99.90;;;;;;5042544;28;20065;-81
2023/09/03 11:40:59;;;;;;;2.80;1.02;;;20.30;99.90;;;;;;5057056;28;20397;-81
2023/09/03 11:43:28;;;;;;;3.15;0.90;;;20.40;99.90;;;;;;5054038;28;20045;-81
2023/09/03 11:45:54;;;;;;;1.58;0.98;;;20.50;99.90;;;;;;5050700;28;20044;-81
2023/09/03 11:48:30;;;;;;;2.28;1.33;;;20.60;99.90;;;;;;5054587;28;20047;-81
2023/09/03 11:50:56;;;;;;;4.65;1.30;;;20.60;99.90;;;;;;5051428;28;20045;-81
2023/09/03 11:53:25;;;;;;;2.67;1.17;;;20.70;99.90;;;;;;5054361;28;20048;-81
2023/09/03 11:55:56;;;;;;;1.02;0.93;;;20.80;99.90;;;;;;5052839;28;20037;-81
2023/09/03 11:58:25;;;;;;;2.83;1.10;;;20.80;99.90;;;;;;5052744;28;20080;-81
2023/09/03 12:00:52;;;;;;;1.83;0.90;;;20.90;99.90;;;;;;5053843;28;20048;-81
2023/09/03 12:03:18;;;;;;;3.38;1.08;;;21.10;99.90;;;;;;5053788;28;20045;-81
2023/09/03 12:05:44;;;;;;;1.35;1.10;;;21.10;99.90;;;;;;5053894;28;20384;-81
2023/09/03 12:08:09;;;;;;;1.45;0.80;;;21.20;99.90;;;;;;5047975;28;20129;-81
2023/09/03 12:10:35;;;;;;;0.88;0.88;;;21.30;99.90;;;;;;5048947;28;20076;-78
2023/09/03 12:13:02;;;;;;;1.38;0.90;;;21.30;99.90;;;;;;5051493;28;20128;-78
2023/09/03 12:15:30;;;;;;;2.50;0.50;;;21.40;99.90;;;;;;5066198;28;20053;-77
2023/09/03 12:18:09;;;;;;;0.77;0.60;;;21.50;99.90;;;;;;5053939;28;21079;-79
2023/09/03 12:20:37;;;;;;;1.73;0.60;;;21.50;99.90;;;;;;5051625;28;20136;-79
2023/09/03 12:23:14;;;;;;;1.25;0.63;;;21.60;99.90;;;;;;5058590;28;20150;-79
2023/09/03 12:25:40;;;;;;;3.17;0.60;;;21.70;99.90;;;;;;5049900;28;20037;-77
2023/09/03 12:28:07;;;;;;;1.20;0.50;;;21.80;99.90;;;;;;5047924;28;20045;-78
2023/09/03 12:31:00;;;;;;;1.15;0.55;;;21.80;99.90;;;;;;5053162;28;20083;-81
2023/09/03 12:33:47;;;;;;;2.08;0.60;;;21.90;99.90;;;;;;5052273;28;20051;-78
2023/09/03 12:36:21;;;;;;;3.22;1.00;;;21.90;99.90;;;;;;5050381;28;20051;-80
2023/09/03 12:38:56;;;;;;;1.10;1.00;;;22.00;99.90;;;;;;5052768;28;20412;-79
2023/09/03 12:41:35;;;;;;;2.58;0.85;;;22.10;99.90;;;;;;5052880;28;20551;-78
2023/09/03 12:44:08;;;;;;;1.50;0.95;;;22.20;99.90;;;;;;5052301;28;20503;-78
2023/09/03 12:46:35;;;;;;;2.17;0.95;;;22.30;99.90;;;;;;5052993;28;20408;-79
2023/09/03 12:49:02;;;;;;;1.38;0.93;;;22.30;99.90;;;;;;5057474;28;20037;-79
2023/09/03 12:51:29;;;;;;;2.25;0.63;;;22.40;99.90;;;;;;5054319;28;20087;-80